Time;durP1;ratioP1;P1;durP2;ratioP2;P2;SDS_P1;SDS_P2;PMS_P1;PMS_P2;Temp;Humidity;BMP_temperature;BMP_pressure;BME280_temperature;BME280_humidity;BME280_pressure;Samples;Min_cycle;Max_cycle;Signal;HPM_P1;HPM_P2
2022/11/08 00:03:46;;;;;;;;;3.25;3.25;;;;;19.61;47.94;100413.75;5059021;28;45406;-53
2022/11/08 00:14:23;;;;;;;;;5.00;4.00;;;;;19.58;48.04;100395.53;5057719;28;45765;-51
2022/11/08 00:16:48;;;;;;;;;6.00;3.67;;;;;19.60;47.93;100393.66;5058969;28;54861;-51
2022/11/08 00:19:13;;;;;;;;;3.25;3.25;;;;;19.60;47.93;100388.41;5060153;28;45198;-55
2022/11/08 00:21:39;;;;;;;;;4.00;3.67;;;;;19.58;48.36;100378.00;5072148;28;60123;-55
2022/11/08 00:24:05;;;;;;;;;4.00;4.00;;;;;19.59;48.23;100371.81;5080777;28;67655;-51
2022/11/08 00:26:30;;;;;;;;;4.50;3.25;;;;;19.58;47.95;100371.88;5082586;28;44706;-53
2022/11/08 00:28:56;;;;;;;;;8.00;4.25;;;;;19.60;48.01;100364.75;5064538;28;45268;-53
2022/11/08 00:31:22;;;;;;;;;4.00;4.00;;;;;19.59;48.21;100361.28;5060956;28;46468;-50
2022/11/08 00:33:47;;;;;;;;;4.00;4.00;;;;;19.58;47.89;100358.72;5057820;28;45514;-54
2022/11/08 00:36:12;;;;;;;;;5.00;4.00;;;;;19.58;48.35;100358.72;5057157;28;45335;-55
2022/11/08 00:38:42;;;;;;;;;5.50;4.25;;;;;19.58;48.33;100340.31;5057461;28;45320;-55
2022/11/08 00:41:08;;;;;;;;;3.50;3.25;;;;;19.56;48.09;100327.28;5059809;28;47439;-55
2022/11/08 00:43:33;;;;;;;;;4.00;4.00;;;;;19.57;47.83;100320.22;5072102;28;45370;-50
2022/11/08 00:45:58;;;;;;;;;4.33;4.00;;;;;19.59;47.94;100318.38;5079416;28;51930;-52
2022/11/08 00:48:24;;;;;;;;;6.00;4.00;;;;;19.59;47.80;100313.09;5062882;28;48159;-52
2022/11/08 00:50:49;;;;;;;;;5.25;4.00;;;;;19.57;48.07;100307.94;5080040;28;45123;-56
2022/11/08 00:53:14;;;;;;;;;4.00;4.00;;;;;19.55;48.17;100295.84;5061630;28;45481;-51
2022/11/08 00:55:39;;;;;;;;;4.00;3.00;;;;;19.58;47.80;100303.53;5058177;28;45382;-51
2022/11/08 00:58:05;;;;;;;;;4.00;4.00;;;;;19.58;48.17;100299.13;5057141;28;51307;-50
2022/11/08 01:00:30;;;;;;;;;4.33;4.33;;;;;19.56;48.22;100293.13;5072779;28;66055;-53
2022/11/08 01:05:39;;;;;;;;;3.50;3.00;;;;;19.57;47.93;100296.56;5062652;28;45212;-52
2022/11/08 01:08:04;;;;;;;;;3.00;3.00;;;;;19.57;48.04;100299.19;5072985;28;45660;-48
2022/11/08 01:10:30;;;;;;;;;4.00;3.00;;;;;19.56;47.62;100295.75;5078941;28;68651;-52
2022/11/08 01:12:55;;;;;;;;;4.75;4.00;;;;;19.56;47.36;100284.41;5074047;28;66182;-51
2022/11/08 01:15:20;;;;;;;;;4.00;4.00;;;;;19.56;47.36;100279.13;5067844;28;58345;-50
2022/11/08 01:17:45;;;;;;;;;3.00;3.00;;;;;19.53;47.52;100292.47;5077026;28;54899;-51
2022/11/08 01:20:11;;;;;;;;;5.75;4.00;;;;;19.56;47.89;100292.28;5075320;28;52723;-51
2022/11/08 01:22:36;;;;;;;;;5.75;4.00;;;;;19.55;47.63;100288.78;5076051;28;48797;-53
2022/11/08 01:25:02;;;;;;;;;6.50;5.00;;;;;19.54;47.84;100287.09;5059908;28;52056;-50
2022/11/08 01:27:27;;;;;;;;;3.75;3.75;;;;;19.53;47.86;100277.50;5056128;28;45513;-52
2022/11/08 01:29:52;;;;;;;;;4.00;3.00;;;;;19.55;47.58;100285.31;5055694;28;57342;-49
2022/11/08 01:32:18;;;;;;;;;4.75;3.25;;;;;19.52;47.62;100282.88;5056149;28;45314;-50
2022/11/08 01:34:43;;;;;;;;;3.33;3.00;;;;;19.54;47.56;100276.56;5070845;28;54557;-51
2022/11/08 01:37:08;;;;;;;;;4.00;4.00;;;;;19.53;47.45;100280.16;5078604;28;52157;-48
2022/11/08 01:39:33;;;;;;;;;4.00;4.00;;;;;19.54;47.70;100283.63;5070672;28;63076;-49
2022/11/08 01:41:59;;;;;;;;;5.00;4.00;;;;;19.53;47.82;100277.50;5085436;28;45311;-51
2022/11/08 01:44:24;;;;;;;;;3.50;3.50;;;;;19.53;47.36;100285.41;5059719;28;45484;-53
2022/11/08 01:46:49;;;;;;;;;9.00;4.50;;;;;19.50;47.65;100272.47;5059554;28;45394;-54
2022/11/08 01:49:28;;;;;;;;;3.00;3.00;;;;;19.52;47.35;100275.00;5058311;28;66850;-53
2022/11/08 01:52:13;;;;;;;;;5.00;3.25;;;;;19.53;47.50;100271.44;5059681;28;45731;-56
2022/11/08 01:54:47;;;;;;;;;3.25;3.25;;;;;19.52;47.39;100269.72;5059474;28;45252;-55
2022/11/08 01:57:18;;;;;;;;;3.50;3.50;;;;;19.52;47.43;100248.72;5059770;28;45305;-52
2022/11/08 01:59:46;;;;;;;;;2.25;2.00;;;;;19.53;47.51;100260.91;5059260;28;45368;-53
2022/11/08 02:02:12;;;;;;;;;4.00;4.00;;;;;19.52;47.51;100249.53;5059407;28;45437;-53
2022/11/08 02:04:40;;;;;;;;;4.00;3.50;;;;;19.48;47.31;100253.31;5059313;28;45327;-54
2022/11/08 02:07:08;;;;;;;;;5.00;4.00;;;;;19.49;47.33;100246.25;5059530;28;45386;-54
2022/11/08 02:09:36;;;;;;;;;6.00;3.00;;;;;19.51;47.19;100247.00;5059095;28;46499;-54
2022/11/08 02:12:01;;;;;;;;;4.50;3.25;;;;;19.50;47.33;100240.94;5059106;28;45347;-51
2022/11/08 02:14:27;;;;;;;;;4.00;4.00;;;;;19.49;47.33;100239.22;5059212;28;45340;-53
2022/11/08 02:16:52;;;;;;;;;4.00;4.00;;;;;19.49;47.25;100227.84;5059704;28;45249;-50
2022/11/08 02:19:28;;;;;;;;;4.00;4.00;;;;;19.49;47.42;100222.59;5058993;28;46786;-54
2022/11/08 02:21:57;;;;;;;;;4.00;3.50;;;;;19.49;47.42;100225.22;5059135;28;45395;-55
2022/11/08 02:24:22;;;;;;;;;2.25;2.00;;;;;19.50;47.65;100217.28;5059191;28;45394;-55
2022/11/08 02:26:51;;;;;;;;;3.75;3.75;;;;;19.51;47.72;100210.22;5059263;28;45339;-55
2022/11/08 02:29:30;;;;;;;;;3.00;3.00;;;;;19.48;47.27;100190.22;5058841;28;46589;-53
2022/11/08 02:31:57;;;;;;;;;4.50;3.25;;;;;19.50;47.72;100190.13;5059309;28;45862;-54
2022/11/08 02:34:33;;;;;;;;;3.75;3.75;;;;;19.49;47.04;100184.03;5072743;28;45374;-47
2022/11/08 02:36:59;;;;;;;;;4.75;4.00;;;;;19.47;47.12;100184.13;5081025;28;45802;-45
2022/11/08 02:39:24;;;;;;;;;3.00;3.00;;;;;19.47;47.05;100176.22;5059579;28;46435;-49
2022/11/08 02:41:50;;;;;;;;;3.00;3.00;;;;;19.46;47.62;100169.28;5058992;28;45383;-48
2022/11/08 02:44:16;;;;;;;;;2.25;2.25;;;;;19.47;46.96;100178.84;5059871;28;44701;-49
2022/11/08 02:46:41;;;;;;;;;2.75;2.75;;;;;19.46;47.54;100178.97;5074991;28;45240;-49
2022/11/08 02:49:06;;;;;;;;;2.50;2.50;;;;;19.49;47.03;100177.91;5077444;28;45332;-53
2022/11/08 02:51:32;;;;;;;;;3.00;3.00;;;;;19.48;46.88;100174.47;5057675;28;45269;-53
2022/11/08 02:53:57;;;;;;;;;5.00;3.75;;;;;19.46;46.88;100161.41;5058386;28;45234;-52
2022/11/08 02:56:23;;;;;;;;;4.00;4.00;;;;;19.48;47.06;100163.94;5058680;28;45323;-55
2022/11/08 02:58:48;;;;;;;;;2.00;2.00;;;;;19.47;47.12;100165.72;5073989;28;46526;-51
2022/11/08 03:01:13;;;;;;;;;6.00;4.50;;;;;19.47;46.88;100157.84;5065444;28;45307;-53
2022/11/08 03:03:39;;;;;;;;;2.00;2.00;;;;;19.46;47.06;100156.13;5058356;28;45298;-52
2022/11/08 03:06:04;;;;;;;;;3.25;3.25;;;;;19.46;47.40;100156.13;5058651;28;45572;-55
2022/11/08 03:08:30;;;;;;;;;3.00;3.00;;;;;19.44;47.36;100152.78;5058484;28;46272;-51
2022/11/08 03:10:55;;;;;;;;;3.00;3.00;;;;;19.45;47.14;100159.72;5058561;28;45372;-55
2022/11/08 03:13:20;;;;;;;;;3.00;3.00;;;;;19.45;47.29;100167.63;5058636;28;45426;-57
2022/11/08 03:15:45;;;;;;;;;4.00;4.00;;;;;19.45;47.01;100167.63;5078639;28;48532;-51
2022/11/08 03:18:11;;;;;;;;;2.00;2.00;;;;;19.45;46.75;100165.00;5085103;28;45992;-51
2022/11/08 03:20:36;;;;;;;;;5.00;3.25;;;;;19.45;47.17;100159.72;5079397;28;64403;-51
2022/11/08 03:23:05;;;;;;;;;4.00;3.00;;;;;19.45;46.70;100167.63;5058337;28;45378;-52
2022/11/08 03:25:31;;;;;;;;;2.00;2.00;;;;;19.44;46.92;100179.06;5058696;28;45578;-49
2022/11/08 03:28:05;;;;;;;;;3.25;3.25;;;;;19.45;46.95;100174.63;5058891;28;46117;-52
2022/11/08 03:30:30;;;;;;;;;4.50;3.25;;;;;19.42;46.69;100164.31;5061328;28;45209;-53
2022/11/08 03:32:56;;;;;;;;;6.00;2.75;;;;;19.43;46.55;100171.25;5062021;28;45357;-52
2022/11/08 03:35:21;;;;;;;;;4.25;2.75;;;;;19.45;47.19;100169.38;5066886;28;45952;-50
2022/11/08 03:37:54;;;;;;;;;4.00;4.00;;;;;19.45;46.93;100167.63;5069453;28;45218;-56
2022/11/08 03:40:20;;;;;;;;;2.50;2.00;;;;;19.42;46.99;100161.69;5066190;28;45342;-53
2022/11/08 03:42:46;;;;;;;;;4.25;2.25;;;;;19.44;46.59;100163.28;5063056;28;45457;-49
2022/11/08 03:45:12;;;;;;;;;3.00;3.00;;;;;19.43;47.14;100151.09;5056855;28;45387;-51
2022/11/08 03:47:38;;;;;;;;;3.00;3.00;;;;;19.43;47.25;100148.47;5057758;28;46199;-46
2022/11/08 03:50:06;;;;;;;;;3.00;3.00;;;;;19.42;46.89;100157.28;5057536;28;45350;-50
2022/11/08 03:52:39;;;;;;;;;3.00;3.00;;;;;19.43;46.63;100160.75;5058228;28;45323;-51
2022/11/08 03:55:05;;;;;;;;;2.00;2.00;;;;;19.44;46.67;100159.81;5057862;28;45448;-55
2022/11/08 03:57:30;;;;;;;;;2.50;2.50;;;;;19.43;46.55;100161.59;5057942;28;46826;-51
2022/11/08 03:59:55;;;;;;;;;2.50;2.50;;;;;19.43;46.53;100160.75;5068798;28;52502;-48
2022/11/08 04:02:21;;;;;;;;;2.33;2.33;;;;;19.43;46.48;100153.72;5081773;28;60702;-53
2022/11/08 04:04:46;;;;;;;;;6.00;3.00;;;;;19.42;46.87;100157.28;5073326;28;54076;-51
2022/11/08 04:07:11;;;;;;;;;1.67;1.67;;;;;19.40;46.40;100151.28;5059462;28;66802;-51
2022/11/08 04:09:36;;;;;;;;;3.33;2.00;;;;;19.39;46.51;100154.84;5056880;28;62374;-53
2022/11/08 04:22:58;;;;;;;;;3.75;3.00;;;;;19.40;46.21;100151.28;5057465;28;45348;-56
2022/11/08 04:25:23;;;;;;;;;2.75;2.75;;;;;19.40;46.20;100159.16;5065239;28;45232;-53
2022/11/08 04:27:48;;;;;;;;;3.00;3.00;;;;;19.41;46.40;100163.47;5069036;28;46042;-53
2022/11/08 04:30:14;;;;;;;;;3.50;2.25;;;;;19.41;46.47;100163.47;5057801;28;45780;-52
2022/11/08 04:32:39;;;;;;;;;2.25;2.25;;;;;19.40;46.11;100161.78;5057709;28;45287;-47
2022/11/08 04:35:04;;;;;;;;;2.00;2.00;;;;;19.38;46.37;100150.50;5057962;28;47772;-46
2022/11/08 04:37:30;;;;;;;;;5.00;3.00;;;;;19.40;46.74;100155.69;5073930;28;45357;-51
2022/11/08 04:39:55;;;;;;;;;3.25;3.25;;;;;19.40;46.48;100155.69;5065428;28;48200;-50
2022/11/08 04:42:20;;;;;;;;;3.75;3.00;;;;;19.40;46.60;100159.16;5060151;28;48324;-49
2022/11/08 04:44:45;;;;;;;;;3.67;2.67;;;;;19.38;46.62;100147.06;5073633;28;54801;-51
2022/11/08 04:47:11;;;;;;;;;2.00;2.00;;;;;19.39;46.56;100154.84;5084844;28;66802;-46
2022/11/08 04:49:36;;;;;;;;;1.00;1.00;;;;;19.39;46.23;100154.00;5083368;28;54402;-48
2022/11/08 04:52:01;;;;;;;;;2.00;2.00;;;;;19.38;46.31;100158.41;5078717;28;58537;-52
2022/11/08 04:54:27;;;;;;;;;2.00;2.00;;;;;19.37;46.58;100156.72;5057193;28;45944;-49
2022/11/08 04:56:52;;;;;;;;;2.25;2.25;;;;;19.38;46.40;100161.03;5056591;28;52652;-51
2022/11/08 04:59:17;;;;;;;;;1.75;1.75;;;;;19.39;46.23;100164.53;5056396;28;50391;-49
2022/11/08 05:01:43;;;;;;;;;1.50;1.50;;;;;19.39;46.26;100160.09;5056682;28;45378;-51
2022/11/08 05:04:08;;;;;;;;;5.00;4.00;;;;;19.37;46.56;100148.81;5056684;28;45384;-52
2022/11/08 05:06:33;;;;;;;;;3.50;2.00;;;;;19.38;46.13;100155.78;5056440;28;45893;-54
2022/11/08 05:08:59;;;;;;;;;3.25;3.25;;;;;19.36;46.09;100136.63;5056298;28;45290;-51
2022/11/08 05:11:26;;;;;;;;;3.50;3.50;;;;;19.38;46.13;100137.38;5056526;28;45355;-53
2022/11/08 05:13:52;;;;;;;;;3.50;3.00;;;;;19.37;46.09;100137.47;5056719;28;45409;-53
2022/11/08 05:16:21;;;;;;;;;2.00;2.00;;;;;19.36;46.04;100152.38;5056270;28;45362;-54
2022/11/08 05:18:47;;;;;;;;;2.50;2.50;;;;;19.36;46.34;100144.50;5055903;28;45753;-56
2022/11/08 05:23:59;;;;;;;;;3.00;3.00;;;;;19.35;45.95;100140.19;5057018;28;45449;-57
2022/11/08 05:26:26;;;;;;;;;3.50;2.25;;;;;19.37;46.28;100150.63;5057938;28;47281;-54
2022/11/08 05:28:51;;;;;;;;;3.50;2.50;;;;;19.36;46.25;100149.75;5057361;28;45255;-55
2022/11/08 05:31:17;;;;;;;;;3.00;3.00;;;;;19.36;45.95;100144.50;5056324;28;45410;-53
2022/11/08 05:33:42;;;;;;;;;5.75;2.25;;;;;19.37;46.05;100150.63;5056622;28;45308;-55
2022/11/08 05:36:10;;;;;;;;;3.50;3.00;;;;;19.36;46.22;100152.38;5065837;28;46110;-51
2022/11/08 05:38:36;;;;;;;;;2.25;2.25;;;;;19.36;46.45;100152.38;5066249;28;45565;-55
2022/11/08 05:41:06;;;;;;;;;2.50;2.50;;;;;19.36;46.14;100144.50;5056398;28;45300;-52
2022/11/08 05:43:31;;;;;;;;;2.25;2.25;;;;;19.36;46.09;100149.75;5056067;28;45378;-51
2022/11/08 05:45:57;;;;;;;;;2.25;2.25;;;;;19.37;46.38;100148.81;5055814;28;46955;-52
2022/11/08 05:48:23;;;;;;;;;2.00;2.00;;;;;19.36;46.04;100149.75;5055834;28;45342;-47
2022/11/08 05:50:48;;;;;;;;;2.00;2.00;;;;;19.33;45.95;100139.47;5056017;28;45232;-48
2022/11/08 05:53:15;;;;;;;;;4.00;4.00;;;;;19.34;46.35;100141.16;5056185;28;45509;-52
2022/11/08 05:55:40;;;;;;;;;3.00;2.00;;;;;19.35;45.79;100140.19;5064011;28;45383;-51
2022/11/08 05:58:06;;;;;;;;;2.75;2.25;;;;;19.35;46.05;100153.31;5069683;28;45299;-50
2022/11/08 06:00:31;;;;;;;;;3.00;2.50;;;;;19.35;46.28;100152.50;5056496;28;45437;-53
2022/11/08 06:02:57;;;;;;;;;3.00;2.25;;;;;19.34;46.30;100146.41;5055668;28;45379;-48
2022/11/08 06:05:22;;;;;;;;;1.75;1.75;;;;;19.32;46.20;100140.41;5055131;28;47014;-53
2022/11/08 06:07:47;;;;;;;;;2.00;2.00;;;;;19.34;45.85;100141.16;5055650;28;45333;-53
2022/11/08 06:10:13;;;;;;;;;3.00;3.00;;;;;19.35;46.08;100147.25;5055823;28;45322;-52
2022/11/08 06:12:38;;;;;;;;;2.25;2.25;;;;;19.32;46.20;100135.13;5056279;28;45576;-54
2022/11/08 06:15:06;;;;;;;;;3.00;3.00;;;;;19.33;45.75;100144.72;5055929;28;46089;-49
2022/11/08 06:17:31;;;;;;;;;3.00;3.00;;;;;19.33;45.99;100149.09;5055274;28;45259;-47
2022/11/08 06:19:57;;;;;;;;;4.50;3.00;;;;;19.34;46.06;100148.19;5055526;28;45220;-49
2022/11/08 06:22:22;;;;;;;;;2.00;2.00;;;;;19.31;45.85;100146.59;5062405;28;49402;-49
2022/11/08 06:24:47;;;;;;;;;2.00;2.00;;;;;19.32;45.56;100148.28;5072798;28;55259;-48
2022/11/08 06:27:13;;;;;;;;;4.25;2.00;;;;;19.33;45.70;100151.75;5071726;28;49152;-49
2022/11/08 06:29:41;;;;;;;;;3.75;3.25;;;;;19.31;45.46;100143.97;5056540;28;45425;-53
2022/11/08 06:32:07;;;;;;;;;3.00;3.00;;;;;19.32;45.49;100150.91;5058903;28;45532;-54
2022/11/08 06:34:33;;;;;;;;;2.75;2.00;;;;;19.32;46.17;100148.28;5058219;28;46208;-50
2022/11/08 06:36:59;;;;;;;;;3.00;3.00;;;;;19.33;45.89;100138.59;5057744;28;68701;-51
2022/11/08 06:39:24;;;;;;;;;2.25;1.75;;;;;19.31;45.83;100138.69;5057285;28;45399;-50
2022/11/08 06:41:50;;;;;;;;;3.00;3.00;;;;;19.31;45.69;100149.22;5058867;28;45619;-53
2022/11/08 06:44:15;;;;;;;;;3.00;2.00;;;;;19.29;45.92;100158.97;5058399;28;46111;-54
2022/11/08 06:46:40;;;;;;;;;4.00;2.00;;;;;19.30;45.75;100163.28;5059031;28;45270;-50
2022/11/08 06:49:05;;;;;;;;;5.00;3.33;;;;;19.33;45.50;100183.28;5058679;28;54053;-48
2022/11/08 06:51:31;;;;;;;;;2.25;2.25;;;;;19.32;45.72;100192.94;5084498;28;44897;-51
2022/11/08 06:53:56;;;;;;;;;3.75;2.50;;;;;19.31;45.82;100183.38;5079833;28;46290;-53
2022/11/08 06:56:21;;;;;;;;;3.00;3.00;;;;;19.31;45.63;100172.88;5064653;28;45291;-55
2022/11/08 06:58:47;;;;;;;;;3.00;3.00;;;;;19.30;45.63;100176.44;5059358;28;45239;-57
2022/11/08 07:01:12;;;;;;;;;2.25;2.25;;;;;19.33;45.64;100170.13;5059352;28;45478;-54
2022/11/08 07:03:38;;;;;;;;;4.00;3.00;;;;;19.31;45.70;100175.50;5058387;28;47203;-53
2022/11/08 07:06:04;;;;;;;;;2.00;2.00;;;;;19.30;45.74;100172.00;5058412;28;45641;-52
2022/11/08 07:08:31;;;;;;;;;3.00;3.00;;;;;19.30;45.29;100176.44;5058476;28;45367;-55
2022/11/08 07:10:56;;;;;;;;;2.50;2.50;;;;;19.27;45.60;100174.84;5059052;28;45481;-52
2022/11/08 07:13:21;;;;;;;;;2.00;2.00;;;;;19.31;45.46;100180.75;5058465;28;45509;-54
2022/11/08 07:15:47;;;;;;;;;5.00;3.00;;;;;19.28;45.41;100173.03;5056698;28;55569;-52
2022/11/08 07:18:14;;;;;;;;;2.25;2.00;;;;;19.30;45.28;100179.88;5059278;28;45433;-53
2022/11/08 07:20:40;;;;;;;;;3.00;3.00;;;;;19.31;45.46;100183.38;5061369;28;45274;-52
2022/11/08 07:23:07;;;;;;;;;2.00;2.00;;;;;19.30;45.53;100192.19;5058640;28;46364;-50
2022/11/08 07:25:33;;;;;;;;;3.00;3.00;;;;;19.30;45.63;100208.78;5058167;28;45240;-54
2022/11/08 07:28:01;;;;;;;;;2.00;2.00;;;;;19.31;45.43;100199.13;5058218;28;45370;-52
2022/11/08 07:30:27;;;;;;;;;3.00;3.00;;;;;19.31;45.45;100178.13;5058838;28;45706;-50
2022/11/08 07:32:54;;;;;;;;;2.00;2.00;;;;;19.30;45.84;100177.25;5058028;28;45538;-49
2022/11/08 07:35:19;;;;;;;;;4.00;2.00;;;;;19.29;45.80;100169.47;5057795;28;45691;-47
2022/11/08 07:37:45;;;;;;;;;2.00;2.00;;;;;19.30;45.50;100197.44;5059128;28;45286;-48
2022/11/08 07:40:11;;;;;;;;;2.50;2.50;;;;;19.31;45.67;100199.13;5058382;28;45560;-54
2022/11/08 07:42:37;;;;;;;;;3.00;3.00;;;;;19.31;45.89;100199.97;5057580;28;47526;-55
2022/11/08 07:45:05;;;;;;;;;4.00;2.25;;;;;19.31;45.51;100199.97;5057966;28;45379;-54
2022/11/08 07:47:30;;;;;;;;;3.00;3.00;;;;;19.31;45.82;100204.38;5058303;28;45383;-51
2022/11/08 07:49:55;;;;;;;;;3.00;3.00;;;;;19.31;45.65;100193.88;5057905;28;45939;-54
2022/11/08 07:52:21;;;;;;;;;2.00;2.00;;;;;19.29;45.67;100191.31;5069242;28;45425;-54
2022/11/08 07:54:46;;;;;;;;;3.00;3.00;;;;;19.33;46.00;100196.41;5075501;28;44675;-46
2022/11/08 07:57:11;;;;;;;;;2.00;2.00;;;;;19.30;45.73;100187.75;5083853;28;44734;-55
2022/11/08 07:59:37;;;;;;;;;5.00;3.00;;;;;19.29;45.36;100187.88;5063441;28;53258;-56
2022/11/08 08:02:02;;;;;;;;;2.00;2.00;;;;;19.31;45.76;100191.25;5058191;28;51373;-54
2022/11/08 08:04:28;;;;;;;;;3.00;3.00;;;;;19.30;45.32;100198.28;5058741;28;45346;-53
2022/11/08 08:06:55;;;;;;;;;3.00;3.00;;;;;19.31;45.86;100193.88;5067987;28;45271;-51
2022/11/08 08:09:20;;;;;;;;;2.00;2.00;;;;;19.31;45.99;100194.72;5083395;28;44796;-48
2022/11/08 08:11:45;;;;;;;;;3.00;3.00;;;;;19.31;45.46;100183.38;5070517;28;47239;-53
2022/11/08 08:14:11;;;;;;;;;2.00;2.00;;;;;19.29;45.42;100170.31;5073386;28;55969;-47
2022/11/08 08:16:36;;;;;;;;;3.25;2.75;;;;;19.31;45.75;100175.50;5073077;28;45243;-57
2022/11/08 08:19:02;;;;;;;;;2.50;2.00;;;;;19.31;45.12;100164.97;5059013;28;45416;-52
2022/11/08 08:21:27;;;;;;;;;2.75;2.75;;;;;19.31;45.71;100162.34;5057168;28;46990;-54
2022/11/08 08:23:53;;;;;;;;;2.50;2.50;;;;;19.29;45.30;100166.84;5057617;28;45216;-53
2022/11/08 08:26:18;;;;;;;;;2.25;2.25;;;;;19.31;45.46;100149.22;5075983;28;45268;-52
2022/11/08 08:28:43;;;;;;;;;3.25;1.25;;;;;19.31;45.35;100151.84;5082334;28;44858;-53
2022/11/08 08:31:08;;;;;;;;;3.00;3.00;;;;;19.30;45.67;100150.97;5062439;28;60721;-50
2022/11/08 08:33:34;;;;;;;;;2.25;2.00;;;;;19.28;45.23;100147.63;5057003;28;60636;-50
2022/11/08 10:43:53;;;;;;;;;2.00;2.00;;;;;19.45;45.91;100190.41;5058246;28;45874;-51
2022/11/08 10:46:33;;;;;;;;;3.75;3.00;;;;;19.45;46.03;100186.00;5058741;28;45829;-52
2022/11/08 10:49:10;;;;;;;;;3.00;2.00;;;;;19.44;46.06;100176.44;5059065;28;45285;-52
2022/11/08 10:51:35;;;;;;;;;3.00;2.00;;;;;19.47;45.75;100184.13;5068163;28;45382;-54
2022/11/08 10:54:01;;;;;;;;;1.50;1.50;;;;;19.47;45.49;100184.13;5069990;28;46291;-52
2022/11/08 10:56:26;;;;;;;;;4.00;1.00;;;;;19.49;45.83;100183.19;5062788;28;45452;-51
2022/11/08 10:58:52;;;;;;;;;1.50;1.50;;;;;19.46;45.87;100166.66;5074993;28;45240;-55
2022/11/08 11:01:21;;;;;;;;;4.00;1.25;;;;;19.49;45.61;100177.91;5070053;28;45350;-53
2022/11/08 11:03:47;;;;;;;;;2.00;2.00;;;;;19.50;45.69;100172.59;5060188;28;47117;-54
2022/11/08 11:06:28;;;;;;;;;1.00;1.00;;;;;19.50;45.68;100161.22;5060227;28;45341;-51
2022/11/08 11:08:56;;;;;;;;;4.00;1.00;;;;;19.53;45.87;100150.53;5060449;28;45410;-53
2022/11/08 11:11:30;;;;;;;;;1.75;1.75;;;;;19.54;46.07;100152.22;5066826;28;44805;-51
2022/11/08 11:14:12;;;;;;;;;2.00;2.00;;;;;19.55;46.18;100160.00;5072270;28;46078;-55
2022/11/08 11:17:10;;;;;;;;;3.75;2.50;;;;;19.55;45.97;100167.03;5060861;28;45455;-52
2022/11/08 11:19:35;;;;;;;;;2.00;2.00;;;;;19.56;46.29;100168.75;5058110;28;45320;-53
2022/11/08 11:22:04;;;;;;;;;2.00;2.00;;;;;19.57;46.31;100157.25;5058453;28;45273;-49
2022/11/08 11:24:30;;;;;;;;;3.75;2.25;;;;;19.58;46.52;100166.84;5057369;28;46461;-53
2022/11/08 11:26:55;;;;;;;;;1.50;1.50;;;;;19.59;46.08;100161.50;5058067;28;45261;-50
2022/11/08 11:29:37;;;;;;;;;3.00;2.25;;;;;19.60;46.44;100150.06;5058338;28;45387;-49
2022/11/08 11:32:20;;;;;;;;;2.00;2.00;;;;;19.61;46.60;100156.13;5058471;28;45479;-50
2022/11/08 11:34:52;;;;;;;;;2.00;2.00;;;;;19.62;46.75;100149.94;5058700;28;52868;-54
2022/11/08 11:37:24;;;;;;;;;4.00;2.75;;;;;19.62;46.40;100156.03;5061270;28;45335;-51
2022/11/08 11:40:14;;;;;;;;;2.00;2.00;;;;;19.63;46.74;100162.16;5059306;28;45306;-52
2022/11/08 11:43:03;;;;;;;;;1.00;1.00;;;;;19.63;46.67;100162.97;5058051;28;45362;-50
2022/11/08 11:45:28;;;;;;;;;2.00;2.00;;;;;19.62;46.46;100156.03;5056855;28;46320;-49
2022/11/08 11:47:56;;;;;;;;;3.00;3.00;;;;;19.62;46.84;100152.56;5058294;28;45402;-47
2022/11/08 11:50:30;;;;;;;;;2.00;2.00;;;;;19.66;46.80;100161.09;5059953;28;45402;-48
2022/11/08 11:52:56;;;;;;;;;3.00;2.00;;;;;19.65;46.41;100155.03;5080114;28;44985;-45
2022/11/08 11:55:47;;;;;;;;;1.50;1.00;;;;;19.63;46.90;100146.38;5068813;28;47249;-47
2022/11/08 11:58:42;;;;;;;;;2.50;2.50;;;;;19.66;46.99;100146.19;5016570;28;45760;-47
2022/11/08 12:01:45;;;;;;;;;2.75;2.00;;;;;19.67;46.47;100145.25;5047188;28;45220;-46
2022/11/08 12:04:36;;;;;;;;;3.50;1.75;;;;;19.67;47.00;100153.16;5057591;28;45707;-50
2022/11/08 12:07:24;;;;;;;;;1.50;1.50;;;;;19.65;46.58;100147.13;5057154;28;46383;-49
2022/11/08 12:10:11;;;;;;;;;3.00;2.00;;;;;19.67;46.81;100144.41;5063733;28;45429;-49
2022/11/08 12:12:59;;;;;;;;;2.50;2.50;;;;;19.68;46.98;100143.47;5072850;28;45489;-50
2022/11/08 12:15:55;;;;;;;;;3.25;2.00;;;;;19.67;47.04;100140.00;5058080;28;45284;-46
2022/11/08 12:18:30;;;;;;;;;2.00;2.00;;;;;19.67;46.47;100153.16;5058516;28;47216;-46
2022/11/08 12:21:13;;;;;;;;;2.25;1.00;;;;;19.67;46.43;100140.00;5068101;28;45589;-46
2022/11/08 12:24:07;;;;;;;;;2.25;2.25;;;;;19.65;47.02;100138.38;5081208;28;44845;-52
2022/11/08 12:26:35;;;;;;;;;3.50;2.00;;;;;19.67;46.79;100140.00;5030982;28;45358;-51
2022/11/08 12:29:25;;;;;;;;;1.00;1.00;;;;;19.66;46.79;100133.06;5057664;28;46350;-55
2022/11/08 12:32:10;;;;;;;;;2.00;2.00;;;;;19.71;46.88;100123.06;5019098;28;45762;-45
2022/11/08 12:34:41;;;;;;;;;2.00;2.00;;;;;19.75;47.28;100135.09;5057169;28;45355;-46
2022/11/08 12:37:09;;;;;;;;;1.50;1.50;;;;;19.80;46.81;100131.31;5056808;28;45393;-47
2022/11/08 12:39:47;;;;;;;;;2.00;2.00;;;;;19.82;46.50;100124.19;5057612;28;46255;-51
2022/11/08 12:42:41;;;;;;;;;2.50;2.50;;;;;19.87;46.80;100128.22;5057141;28;45258;-49
2022/11/08 12:45:15;;;;;;;;;2.00;2.00;;;;;19.93;47.03;100116.47;5057378;28;45243;-52
2022/11/08 12:47:48;;;;;;;;;1.75;1.75;;;;;19.97;46.83;100139.03;5056544;28;45441;-48
2022/11/08 12:50:41;;;;;;;;;2.25;1.75;;;;;20.02;46.86;100126.41;5056263;28;46506;-51
2022/11/08 12:53:15;;;;;;;;;4.00;2.00;;;;;20.06;46.69;100132.34;5056130;28;45346;-51
2022/11/08 12:55:42;;;;;;;;;2.00;0.25;;;;;20.08;46.82;100123.38;5058232;28;45319;-52
2022/11/08 12:58:36;;;;;;;;;1.25;1.25;;;;;20.13;46.97;100122.22;5057617;28;45549;-46
2022/11/08 13:01:09;;;;;;;;;2.00;2.00;;;;;20.15;46.58;100115.94;5057610;28;46118;-46
2022/11/08 13:03:44;;;;;;;;;2.50;2.00;;;;;20.20;46.92;100107.75;5062390;28;45820;-57
2022/11/08 13:06:17;;;;;;;;;1.50;1.50;;;;;20.25;46.45;100118.81;5069022;28;45272;-48
2022/11/08 13:08:59;;;;;;;;;2.00;2.00;;;;;20.28;46.41;100130.94;5058475;28;45435;-51
2022/11/08 13:11:49;;;;;;;;;1.50;1.25;;;;;20.30;46.56;100132.50;5056111;28;46368;-50
2022/11/08 13:14:17;;;;;;;;;2.50;2.00;;;;;20.32;46.51;100112.22;5057311;28;45882;-48
2022/11/08 13:16:45;;;;;;;;;2.00;2.00;;;;;20.35;46.46;100111.97;5057849;28;45342;-56
2022/11/08 13:19:59;;;;;;;;;2.00;2.00;;;;;20.40;46.41;100106.41;5057025;28;45441;-55
2022/11/08 13:22:27;;;;;;;;;3.75;2.00;;;;;20.45;46.39;100108.78;5056023;28;46106;-55
2022/11/08 13:24:56;;;;;;;;;1.00;1.00;;;;;20.47;46.62;100105.09;5056435;28;45184;-56
2022/11/08 13:27:29;;;;;;;;;2.00;2.00;;;;;20.50;46.79;100098.75;5057270;28;45366;-53
2022/11/08 13:29:59;;;;;;;;;1.25;1.25;;;;;20.52;46.76;100099.50;5062912;28;45330;-49
2022/11/08 13:32:56;;;;;;;;;2.00;2.00;;;;;20.57;46.35;100093.94;5072700;28;45537;-51
2022/11/08 13:35:28;;;;;;;;;3.00;3.00;;;;;20.59;46.76;100094.69;5074663;28;45369;-57
2022/11/08 13:38:21;;;;;;;;;2.50;2.00;;;;;20.61;46.52;100090.97;5062193;28;45534;-53
2022/11/08 13:41:05;;;;;;;;;2.75;1.00;;;;;20.62;46.10;100087.41;5068714;28;45427;-56
2022/11/08 13:43:34;;;;;;;;;2.00;2.00;;;;;20.66;46.66;100096.78;5081536;28;45746;-54
2022/11/08 13:46:24;;;;;;;;;3.00;2.00;;;;;20.68;46.24;100097.50;5078827;28;45311;-53
2022/11/08 13:49:03;;;;;;;;;1.00;1.00;;;;;20.71;46.70;100093.84;5083630;28;44729;-56
2022/11/08 13:51:37;;;;;;;;;1.25;1.00;;;;;20.72;46.26;100097.31;5084877;28;44822;-58
2022/11/08 13:54:03;;;;;;;;;2.00;2.00;;;;;20.75;46.09;100094.50;5083837;28;46324;-54
2022/11/08 13:56:43;;;;;;;;;1.00;1.00;;;;;20.79;46.14;100103.88;5056660;28;45469;-51
2022/11/08 13:59:35;;;;;;;;;4.00;1.25;;;;;20.81;46.21;100108.09;5058893;28;45284;-54
2022/11/08 14:02:31;;;;;;;;;1.00;1.00;;;;;20.84;46.51;100109.69;5027798;28;45572;-59
2022/11/08 14:05:17;;;;;;;;;1.00;1.00;;;;;20.87;46.35;100106.84;5045392;28;46279;-51
2022/11/08 14:08:12;;;;;;;;;3.50;2.00;;;;;20.89;46.58;100099.66;5058804;28;45672;-48
2022/11/08 14:11:22;;;;;;;;;4.00;2.00;;;;;20.93;46.02;100100.31;5058795;28;45323;-48